New Limerick, Maine
Current Conditions -  °F | °C
As of 5:53 AM on Wednesday 22 Oct 2014 (Local Time) from KHUL Reporting Station
Overcast Overcast  
Wind Chill: 36°   Ceiling: 9000
Heat Index: 41°   Visibility: 10mi
Dew Point: 33°   Wind: 7mph
Humidity: 73%   Direction: 10°N
Pressure: 30.28"   Gusts: NA
Location:  46.1°N, 67.96°W
Report Text: KHUL 220953Z AUTO 01006KT 10SM OVC090 05/01 A3028 RMK AO2 SLP259 T00500006
Loading
Personal Weather Stations






























Interactive Weather Map
Tropical Storm Tracking
New forecast layout! Learn more

10-Day Weather Forecast

Advertisements
Track Severe Weather on mobile